sensor_id;sensor_type;location;lat;lon;timestamp;pressure;altitude;pressure_sealevel;temperature;humidity
23619;BME280;18207;32.078;34.818;2023-06-22T00:00:52;100397.91;;;31.01;47.49
23619;BME280;18207;32.078;34.818;2023-06-22T00:03:26;100397.09;;;31.01;47.61
23619;BME280;18207;32.078;34.818;2023-06-22T00:05:56;100384.13;;;31.00;47.76
23619;BME280;18207;32.078;34.818;2023-06-22T00:08:27;100389.00;;;30.99;47.51
23619;BME280;18207;32.078;34.818;2023-06-22T00:10:57;100386.59;;;30.98;48.19
23619;BME280;18207;32.078;34.818;2023-06-22T00:13:27;100393.06;;;30.98;48.07
23619;BME280;18207;32.078;34.818;2023-06-22T00:15:57;100387.38;;;30.98;47.39
23619;BME280;18207;32.078;34.818;2023-06-22T00:18:29;100386.59;;;30.98;47.85
23619;BME280;18207;32.078;34.818;2023-06-22T00:21:00;100391.44;;;30.97;47.54
23619;BME280;18207;32.078;34.818;2023-06-22T00:23:31;100387.81;;;30.97;47.91
23619;BME280;18207;32.078;34.818;2023-06-22T00:26:02;100388.22;;;30.95;47.42
23619;BME280;18207;32.078;34.818;2023-06-22T00:28:33;100389.44;;;30.94;48.14
23619;BME280;18207;32.078;34.818;2023-06-22T00:31:04;100391.47;;;30.94;48.16
23619;BME280;18207;32.078;34.818;2023-06-22T00:33:36;100390.69;;;30.93;47.66
23619;BME280;18207;32.078;34.818;2023-06-22T00:36:06;100383.38;;;30.92;47.64
23619;BME280;18207;32.078;34.818;2023-06-22T00:38:41;100382.16;;;30.90;48.12
23619;BME280;18207;32.078;34.818;2023-06-22T00:41:12;100385.00;;;30.90;48.15
23619;BME280;18207;32.078;34.818;2023-06-22T00:43:41;100378.94;;;30.88;47.65
23619;BME280;18207;32.078;34.818;2023-06-22T00:46:12;100382.19;;;30.86;48.17
23619;BME280;18207;32.078;34.818;2023-06-22T00:48:45;100380.97;;;30.84;48.07
23619;BME280;18207;32.078;34.818;2023-06-22T00:51:15;100392.75;;;30.82;48.05
23619;BME280;18207;32.078;34.818;2023-06-22T00:53:52;100389.53;;;30.77;48.27
23619;BME280;18207;32.078;34.818;2023-06-22T00:56:24;100386.72;;;30.73;47.75
23619;BME280;18207;32.078;34.818;2023-06-22T00:58:59;100393.22;;;30.70;48.04
23619;BME280;18207;32.078;34.818;2023-06-22T01:01:31;100385.94;;;30.69;47.83
23619;BME280;18207;32.078;34.818;2023-06-22T01:04:04;100392.81;;;30.68;48.33
23619;BME280;18207;32.078;34.818;2023-06-22T01:06:50;100379.06;;;30.67;48.11
23619;BME280;18207;32.078;34.818;2023-06-22T01:09:31;100390.81;;;30.65;48.25
23619;BME280;18207;32.078;34.818;2023-06-22T01:12:06;100402.56;;;30.64;47.70
23619;BME280;18207;32.078;34.818;2023-06-22T01:14:45;100403.78;;;30.63;47.70
23619;BME280;18207;32.078;34.818;2023-06-22T01:17:19;100396.50;;;30.62;47.91
23619;BME280;18207;32.078;34.818;2023-06-22T01:19:54;100396.91;;;30.60;47.80
23619;BME280;18207;32.078;34.818;2023-06-22T01:22:31;100396.53;;;30.58;48.38
23619;BME280;18207;32.078;34.818;2023-06-22T01:25:10;100397.34;;;30.55;47.83
23619;BME280;18207;32.078;34.818;2023-06-22T01:28:24;100405.88;;;30.52;47.86
23619;BME280;18207;32.078;34.818;2023-06-22T01:30:59;100402.63;;;30.50;48.53
23619;BME280;18207;32.078;34.818;2023-06-22T01:33:37;100402.59;;;30.46;47.90
23619;BME280;18207;32.078;34.818;2023-06-22T01:36:09;100402.63;;;30.43;48.63
23619;BME280;18207;32.078;34.818;2023-06-22T01:38:40;100396.97;;;30.40;48.68
23619;BME280;18207;32.078;34.818;2023-06-22T01:41:12;100407.91;;;30.38;48.43
23619;BME280;18207;32.078;34.818;2023-06-22T01:43:44;100406.28;;;30.37;48.08
23619;BME280;18207;32.078;34.818;2023-06-22T01:46:19;100406.28;;;30.37;48.30
23619;BME280;18207;32.078;34.818;2023-06-22T01:48:51;100420.91;;;30.35;48.12
23619;BME280;18207;32.078;34.818;2023-06-22T01:51:21;100419.28;;;30.34;48.12
23619;BME280;18207;32.078;34.818;2023-06-22T01:53:52;100412.81;;;30.34;48.01
23619;BME280;18207;32.078;34.818;2023-06-22T01:56:22;100416.03;;;30.32;48.72
23619;BME280;18207;32.078;34.818;2023-06-22T01:59:01;100414.03;;;30.33;48.29
23619;BME280;18207;32.078;34.818;2023-06-22T02:01:44;100423.75;;;30.32;48.23
23619;BME280;18207;32.078;34.818;2023-06-22T02:04:25;100427.78;;;30.31;48.23
23619;BME280;18207;32.078;34.818;2023-06-22T02:06:59;100419.72;;;30.29;48.60
23619;BME280;18207;32.078;34.818;2023-06-22T02:09:31;100422.13;;;30.27;48.21
23619;BME280;18207;32.078;34.818;2023-06-22T02:12:07;100419.31;;;30.27;48.30
23619;BME280;18207;32.078;34.818;2023-06-22T02:14:39;100421.31;;;30.27;48.62
23619;BME280;18207;32.078;34.818;2023-06-22T02:17:12;100423.78;;;30.25;48.47
23619;BME280;18207;32.078;34.818;2023-06-22T02:19:42;100424.16;;;30.23;48.49
23619;BME280;18207;32.078;34.818;2023-06-22T02:22:13;100427.81;;;30.24;48.70
23619;BME280;18207;32.078;34.818;2023-06-22T02:24:44;100426.19;;;30.23;48.48
23619;BME280;18207;32.078;34.818;2023-06-22T02:27:14;100423.38;;;30.23;48.63
23619;BME280;18207;32.078;34.818;2023-06-22T02:29:44;100423.75;;;30.21;48.15
23619;BME280;18207;32.078;34.818;2023-06-22T02:32:16;100427.84;;;30.20;48.05
23619;BME280;18207;32.078;34.818;2023-06-22T02:34:46;100422.16;;;30.20;48.78
23619;BME280;18207;32.078;34.818;2023-06-22T02:37:17;100425.38;;;30.19;48.52
23619;BME280;18207;32.078;34.818;2023-06-22T02:39:47;100420.13;;;30.17;48.66
23619;BME280;18207;32.078;34.818;2023-06-22T02:42:18;100425.41;;;30.15;48.66
23619;BME280;18207;32.078;34.818;2023-06-22T02:44:49;100423.00;;;30.14;48.29
23619;BME280;18207;32.078;34.818;2023-06-22T02:47:22;100421.78;;;30.15;48.14
23619;BME280;18207;32.078;34.818;2023-06-22T02:49:52;100427.44;;;30.15;48.58
23619;BME280;18207;32.078;34.818;2023-06-22T02:52:22;100425.41;;;30.15;48.35
23619;BME280;18207;32.078;34.818;2023-06-22T02:54:52;100424.59;;;30.15;48.02
23619;BME280;18207;32.078;34.818;2023-06-22T02:57:23;100425.41;;;30.15;48.77
23619;BME280;18207;32.078;34.818;2023-06-22T02:59:53;100427.03;;;30.16;48.78
23619;BME280;18207;32.078;34.818;2023-06-22T03:02:26;100423.00;;;30.14;48.53
23619;BME280;18207;32.078;34.818;2023-06-22T03:04:55;100427.03;;;30.13;48.40
23619;BME280;18207;32.078;34.818;2023-06-22T03:07:26;100427.44;;;30.11;48.05
23619;BME280;18207;32.078;34.818;2023-06-22T03:09:58;100429.88;;;30.09;48.51
23619;BME280;18207;32.078;34.818;2023-06-22T03:12:28;100433.53;;;30.06;48.17
23619;BME280;18207;32.078;34.818;2023-06-22T03:14:58;100447.28;;;30.04;48.47
23619;BME280;18207;32.078;34.818;2023-06-22T03:17:29;100448.13;;;30.05;48.68
23619;BME280;18207;32.078;34.818;2023-06-22T03:20:00;100449.31;;;30.04;48.86
23619;BME280;18207;32.078;34.818;2023-06-22T03:22:34;100447.28;;;30.04;48.35
23619;BME280;18207;32.078;34.818;2023-06-22T03:25:06;100442.44;;;30.05;48.76
23619;BME280;18207;32.078;34.818;2023-06-22T03:27:42;100450.13;;;30.04;48.70
23619;BME280;18207;32.078;34.818;2023-06-22T03:30:12;100444.44;;;30.04;48.27
23619;BME280;18207;32.078;34.818;2023-06-22T03:32:44;100457.41;;;30.05;48.98
23619;BME280;18207;32.078;34.818;2023-06-22T03:35:15;100459.84;;;30.07;48.44
23619;BME280;18207;32.078;34.818;2023-06-22T03:37:45;100457.41;;;30.09;48.97
23619;BME280;18207;32.078;34.818;2023-06-22T03:40:15;100452.16;;;30.11;48.32
23619;BME280;18207;32.078;34.818;2023-06-22T03:42:46;100456.59;;;30.12;48.69
23619;BME280;18207;32.078;34.818;2023-06-22T03:45:17;100463.06;;;30.09;48.42
23619;BME280;18207;32.078;34.818;2023-06-22T03:47:49;100456.19;;;30.10;48.27
23619;BME280;18207;32.078;34.818;2023-06-22T03:50:19;100462.28;;;30.08;48.84
23619;BME280;18207;32.078;34.818;2023-06-22T03:52:50;100466.72;;;30.06;48.75
23619;BME280;18207;32.078;34.818;2023-06-22T03:55:20;100469.97;;;30.04;48.86
23619;BME280;18207;32.078;34.818;2023-06-22T03:57:51;100471.19;;;30.03;48.50
23619;BME280;18207;32.078;34.818;2023-06-22T04:00:22;100465.13;;;30.05;48.94
23619;BME280;18207;32.078;34.818;2023-06-22T04:02:54;100471.59;;;30.05;48.70
23619;BME280;18207;32.078;34.818;2023-06-22T04:05:25;100469.16;;;30.07;48.60
23619;BME280;18207;32.078;34.818;2023-06-22T04:07:55;100468.34;;;30.10;48.70
23619;BME280;18207;32.078;34.818;2023-06-22T04:10:25;100469.56;;;30.13;49.19
23619;BME280;18207;32.078;34.818;2023-06-22T04:12:56;100465.09;;;30.12;49.10
23619;BME280;18207;32.078;34.818;2023-06-22T04:15:26;100461.44;;;30.11;49.19
23619;BME280;18207;32.078;34.818;2023-06-22T04:17:57;100468.72;;;30.12;49.02
23619;BME280;18207;32.078;34.818;2023-06-22T04:20:28;100463.47;;;30.14;49.28
23619;BME280;18207;32.078;34.818;2023-06-22T04:23:00;100469.13;;;30.18;48.61
23619;BME280;18207;32.078;34.818;2023-06-22T04:25:30;100461.88;;;30.20;48.51
23619;BME280;18207;32.078;34.818;2023-06-22T04:28:01;100467.91;;;30.22;48.97
23619;BME280;18207;32.078;34.818;2023-06-22T04:30:33;100474.41;;;30.23;48.80
23619;BME280;18207;32.078;34.818;2023-06-22T04:33:05;100475.19;;;30.23;49.22
23619;BME280;18207;32.078;34.818;2023-06-22T04:35:35;100470.34;;;30.24;49.30
23619;BME280;18207;32.078;34.818;2023-06-22T04:38:09;100465.06;;;30.22;48.60
23619;BME280;18207;32.078;34.818;2023-06-22T04:40:41;100476.03;;;30.24;48.79
23619;BME280;18207;32.078;34.818;2023-06-22T04:43:11;100460.63;;;30.25;48.64
23619;BME280;18207;32.078;34.818;2023-06-22T04:45:42;100465.88;;;30.26;48.95
23619;BME280;18207;32.078;34.818;2023-06-22T04:48:14;100461.41;;;30.29;48.76
23619;BME280;18207;32.078;34.818;2023-06-22T04:50:45;100459.00;;;30.31;48.97
23619;BME280;18207;32.078;34.818;2023-06-22T04:53:15;100458.56;;;30.32;48.55
23619;BME280;18207;32.078;34.818;2023-06-22T04:55:46;100465.47;;;30.35;49.35
23619;BME280;18207;32.078;34.818;2023-06-22T04:58:17;100466.25;;;30.39;48.91
23619;BME280;18207;32.078;34.818;2023-06-22T05:00:48;100475.19;;;30.41;48.76
23619;BME280;18207;32.078;34.818;2023-06-22T05:03:21;100460.19;;;30.43;48.89
23619;BME280;18207;32.078;34.818;2023-06-22T05:05:54;100467.06;;;30.42;49.06
23619;BME280;18207;32.078;34.818;2023-06-22T05:08:24;100467.88;;;30.43;49.29
23619;BME280;18207;32.078;34.818;2023-06-22T05:10:56;100463.41;;;30.45;48.87
23619;BME280;18207;32.078;34.818;2023-06-22T05:13:33;100458.13;;;30.47;48.74
23619;BME280;18207;32.078;34.818;2023-06-22T05:16:04;100461.81;;;30.48;49.04
23619;BME280;18207;32.078;34.818;2023-06-22T05:18:36;100459.00;;;30.48;49.33
23619;BME280;18207;32.078;34.818;2023-06-22T05:21:07;100456.53;;;30.50;49.24
23619;BME280;18207;32.078;34.818;2023-06-22T05:23:36;100452.47;;;30.54;49.21
23619;BME280;18207;32.078;34.818;2023-06-22T05:26:07;100456.09;;;30.58;49.23
23619;BME280;18207;32.078;34.818;2023-06-22T05:28:38;100456.50;;;30.64;49.18
23619;BME280;18207;32.078;34.818;2023-06-22T05:31:08;100463.75;;;30.68;48.58
23619;BME280;18207;32.078;34.818;2023-06-22T05:33:39;100462.53;;;30.73;48.42
23619;BME280;18207;32.078;34.818;2023-06-22T05:36:10;100457.25;;;30.75;48.78
23619;BME280;18207;32.078;34.818;2023-06-22T05:38:41;100457.25;;;30.78;48.50
23619;BME280;18207;32.078;34.818;2023-06-22T05:41:12;100461.69;;;30.83;49.24
23619;BME280;18207;32.078;34.818;2023-06-22T05:43:43;100470.19;;;30.86;49.18
23619;BME280;18207;32.078;34.818;2023-06-22T05:46:13;100468.53;;;30.89;48.89
23619;BME280;18207;32.078;34.818;2023-06-22T05:48:45;100461.25;;;30.91;48.68
23619;BME280;18207;32.078;34.818;2023-06-22T05:51:15;100465.25;;;30.97;48.98
23619;BME280;18207;32.078;34.818;2023-06-22T05:53:45;100462.81;;;31.03;48.50
23619;BME280;18207;32.078;34.818;2023-06-22T05:56:18;100466.84;;;31.09;48.97
23619;BME280;18207;32.078;34.818;2023-06-22T05:58:48;100473.72;;;31.15;48.61
23619;BME280;18207;32.078;34.818;2023-06-22T06:01:18;100462.75;;;31.17;48.82
23619;BME280;18207;32.078;34.818;2023-06-22T06:03:50;100463.97;;;31.19;48.53
23619;BME280;18207;32.078;34.818;2023-06-22T06:06:21;100463.94;;;31.23;48.82
23619;BME280;18207;32.078;34.818;2023-06-22T06:08:56;100467.16;;;31.28;48.97
23619;BME280;18207;32.078;34.818;2023-06-22T06:11:27;100465.47;;;31.34;48.42
23619;BME280;18207;32.078;34.818;2023-06-22T06:13:58;100474.00;;;31.37;48.60
23619;BME280;18207;32.078;34.818;2023-06-22T06:16:28;100475.59;;;31.42;48.64
23619;BME280;18207;32.078;34.818;2023-06-22T06:19:00;100471.91;;;31.45;48.64
23619;BME280;18207;32.078;34.818;2023-06-22T06:21:30;100467.44;;;31.47;48.17
23619;BME280;18207;32.078;34.818;2023-06-22T06:24:00;100474.72;;;31.52;48.64
23619;BME280;18207;32.078;34.818;2023-06-22T06:26:31;100466.19;;;31.55;48.41
23619;BME280;18207;32.078;34.818;2023-06-22T06:29:01;100468.59;;;31.57;48.61
23619;BME280;18207;32.078;34.818;2023-06-22T06:31:32;100472.25;;;31.61;48.22
23619;BME280;18207;32.078;34.818;2023-06-22T06:34:03;100470.16;;;31.65;47.89
23619;BME280;18207;32.078;34.818;2023-06-22T06:36:33;100466.88;;;31.70;48.47
23619;BME280;18207;32.078;34.818;2023-06-22T06:39:03;100466.44;;;31.75;48.38
23619;BME280;18207;32.078;34.818;2023-06-22T06:41:34;100462.31;;;31.79;48.16
23619;BME280;18207;32.078;34.818;2023-06-22T06:44:05;100464.72;;;31.84;48.30
23619;BME280;18207;32.078;34.818;2023-06-22T06:46:34;100455.75;;;31.89;48.35
23619;BME280;18207;32.078;34.818;2023-06-22T06:49:07;100451.63;;;31.94;48.16
23619;BME280;18207;32.078;34.818;2023-06-22T06:51:38;100460.13;;;31.97;47.74
23619;BME280;18207;32.078;34.818;2023-06-22T06:54:08;100456.84;;;32.02;47.92
23619;BME280;18207;32.078;34.818;2023-06-22T06:56:39;100454.78;;;32.06;47.95
23619;BME280;18207;32.078;34.818;2023-06-22T06:59:16;100462.09;;;32.11;48.13
23619;BME280;18207;32.078;34.818;2023-06-22T07:01:46;100455.53;;;32.14;48.08
23619;BME280;18207;32.078;34.818;2023-06-22T07:04:18;100459.56;;;32.20;47.83
23619;BME280;18207;32.078;34.818;2023-06-22T07:06:48;100458.69;;;32.22;47.58
23619;BME280;18207;32.078;34.818;2023-06-22T07:09:18;100464.34;;;32.26;47.71
23619;BME280;18207;32.078;34.818;2023-06-22T07:11:48;100464.34;;;32.29;47.17
23619;BME280;18207;32.078;34.818;2023-06-22T07:14:20;100460.63;;;32.32;47.67
23619;BME280;18207;32.078;34.818;2023-06-22T07:16:50;100462.63;;;32.35;47.03
23619;BME280;18207;32.078;34.818;2023-06-22T07:19:27;100461.38;;;32.40;47.03
23619;BME280;18207;32.078;34.818;2023-06-22T07:21:59;100465.41;;;32.42;47.40
23619;BME280;18207;32.078;34.818;2023-06-22T07:24:29;100461.28;;;32.47;47.00
23619;BME280;18207;32.078;34.818;2023-06-22T07:27:00;100457.59;;;32.50;47.34
23619;BME280;18207;32.078;34.818;2023-06-22T07:29:32;100466.91;;;32.54;47.57
23619;BME280;18207;32.078;34.818;2023-06-22T07:32:04;100454.28;;;32.58;46.87
23619;BME280;18207;32.078;34.818;2023-06-22T07:34:37;100453.00;;;32.63;46.95
23619;BME280;18207;32.078;34.818;2023-06-22T07:37:07;100452.13;;;32.66;46.78
23619;BME280;18207;32.078;34.818;2023-06-22T07:39:38;100450.13;;;32.66;47.32
23619;BME280;18207;32.078;34.818;2023-06-22T07:42:08;100450.06;;;32.70;47.25
23619;BME280;18207;32.078;34.818;2023-06-22T07:44:39;100452.88;;;32.73;46.61
23619;BME280;18207;32.078;34.818;2023-06-22T07:47:09;100455.31;;;32.75;46.63
23619;BME280;18207;32.078;34.818;2023-06-22T07:49:41;100444.66;;;32.79;46.58
23619;BME280;18207;32.078;34.818;2023-06-22T07:52:12;100447.91;;;32.81;47.08
23619;BME280;18207;32.078;34.818;2023-06-22T07:54:42;100449.91;;;32.84;46.51
23619;BME280;18207;32.078;34.818;2023-06-22T07:57:12;100449.03;;;32.87;46.77
23619;BME280;18207;32.078;34.818;2023-06-22T07:59:43;100451.81;;;32.90;46.89
23619;BME280;18207;32.078;34.818;2023-06-22T08:02:13;100448.13;;;32.93;46.37
23619;BME280;18207;32.078;34.818;2023-06-22T08:04:45;100455.00;;;32.96;46.62
23619;BME280;18207;32.078;34.818;2023-06-22T08:07:15;100455.38;;;32.98;46.02
23619;BME280;18207;32.078;34.818;2023-06-22T08:09:48;100454.53;;;33.01;46.35
23619;BME280;18207;32.078;34.818;2023-06-22T08:12:19;100458.56;;;33.03;45.99
23619;BME280;18207;32.078;34.818;2023-06-22T08:14:50;100454.50;;;33.04;45.89
23619;BME280;18207;32.078;34.818;2023-06-22T08:17:20;100456.91;;;33.06;45.88
23619;BME280;18207;32.078;34.818;2023-06-22T08:19:52;100464.59;;;33.09;45.85
23619;BME280;18207;32.078;34.818;2023-06-22T08:22:23;100462.16;;;33.11;45.77
23619;BME280;18207;32.078;34.818;2023-06-22T08:24:54;100457.66;;;33.13;45.76
23619;BME280;18207;32.078;34.818;2023-06-22T08:27:23;100461.69;;;33.15;46.38
23619;BME280;18207;32.078;34.818;2023-06-22T08:29:56;100450.66;;;33.17;46.16
23619;BME280;18207;32.078;34.818;2023-06-22T08:32:28;100453.91;;;33.19;45.57
23619;BME280;18207;32.078;34.818;2023-06-22T08:35:03;100459.97;;;33.21;45.45
23619;BME280;18207;32.078;34.818;2023-06-22T08:37:34;100462.41;;;33.23;45.52
23619;BME280;18207;32.078;34.818;2023-06-22T08:40:06;100464.00;;;33.24;45.35
23619;BME280;18207;32.078;34.818;2023-06-22T08:42:40;100462.34;;;33.26;45.83
23619;BME280;18207;32.078;34.818;2023-06-22T08:45:11;100466.38;;;33.29;45.37
23619;BME280;18207;32.078;34.818;2023-06-22T08:47:42;100456.59;;;33.30;45.21
23619;BME280;18207;32.078;34.818;2023-06-22T08:50:15;100454.94;;;33.32;45.36
23619;BME280;18207;32.078;34.818;2023-06-22T08:52:46;100448.81;;;33.34;45.15
23619;BME280;18207;32.078;34.818;2023-06-22T08:55:16;100440.63;;;33.36;45.23
23619;BME280;18207;32.078;34.818;2023-06-22T08:57:47;100445.88;;;33.37;45.81
23619;BME280;18207;32.078;34.818;2023-06-22T09:00:18;100449.13;;;33.39;45.19
23619;BME280;18207;32.078;34.818;2023-06-22T09:02:49;100445.03;;;33.40;45.05
23619;BME280;18207;32.078;34.818;2023-06-22T09:05:22;100449.50;;;33.41;45.11
23619;BME280;18207;32.078;34.818;2023-06-22T09:07:53;100445.03;;;33.40;45.27
23619;BME280;18207;32.078;34.818;2023-06-22T09:10:24;100444.59;;;33.42;45.08
23619;BME280;18207;32.078;34.818;2023-06-22T09:12:57;100440.50;;;33.43;44.92
23619;BME280;18207;32.078;34.818;2023-06-22T09:15:27;100433.59;;;33.44;45.23
23619;BME280;18207;32.078;34.818;2023-06-22T09:17:58;100436.00;;;33.45;45.00
23619;BME280;18207;32.078;34.818;2023-06-22T09:20:30;100436.75;;;33.49;44.98
23619;BME280;18207;32.078;34.818;2023-06-22T09:23:00;100441.63;;;33.49;45.12
23619;BME280;18207;32.078;34.818;2023-06-22T09:25:31;100437.53;;;33.50;44.78
23619;BME280;18207;32.078;34.818;2023-06-22T09:28:01;100431.06;;;33.49;45.15
23619;BME280;18207;32.078;34.818;2023-06-22T09:30:31;100425.78;;;33.48;44.71
23619;BME280;18207;32.078;34.818;2023-06-22T09:33:01;100425.78;;;33.48;44.85
23619;BME280;18207;32.078;34.818;2023-06-22T09:35:33;100425.34;;;33.49;45.27
23619;BME280;18207;32.078;34.818;2023-06-22T09:38:03;100415.19;;;33.48;45.00
23619;BME280;18207;32.078;34.818;2023-06-22T09:40:34;100417.59;;;33.50;45.33
23619;BME280;18207;32.078;34.818;2023-06-22T09:43:08;100412.72;;;33.50;45.26
23619;BME280;18207;32.078;34.818;2023-06-22T09:45:38;100407.00;;;33.50;45.29
23619;BME280;18207;32.078;34.818;2023-06-22T09:48:09;100412.28;;;33.52;44.81
23619;BME280;18207;32.078;34.818;2023-06-22T09:50:42;100401.31;;;33.50;44.72
23619;BME280;18207;32.078;34.818;2023-06-22T09:53:12;100403.72;;;33.52;44.51
23619;BME280;18207;32.078;34.818;2023-06-22T09:55:43;100403.72;;;33.52;45.02
23619;BME280;18207;32.078;34.818;2023-06-22T09:58:13;100406.13;;;33.53;44.91
23619;BME280;18207;32.078;34.818;2023-06-22T10:00:44;100408.19;;;33.53;44.61
23619;BME280;18207;32.078;34.818;2023-06-22T10:03:14;100400.81;;;33.55;44.78
23619;BME280;18207;32.078;34.818;2023-06-22T10:05:46;100402.81;;;33.58;45.03
23619;BME280;18207;32.078;34.818;2023-06-22T10:08:16;100400.78;;;33.59;44.75
23619;BME280;18207;32.078;34.818;2023-06-22T10:10:47;100398.75;;;33.59;44.75
23619;BME280;18207;32.078;34.818;2023-06-22T10:13:20;100396.69;;;33.60;45.04
23619;BME280;18207;32.078;34.818;2023-06-22T10:15:51;100392.59;;;33.61;45.03
23619;BME280;18207;32.078;34.818;2023-06-22T10:18:21;100403.59;;;33.62;44.71
23619;BME280;18207;32.078;34.818;2023-06-22T10:20:53;100394.59;;;33.64;44.90
23619;BME280;18207;32.078;34.818;2023-06-22T10:23:23;100397.44;;;33.64;44.92
23619;BME280;18207;32.078;34.818;2023-06-22T10:25:53;100397.00;;;33.65;44.53
23619;BME280;18207;32.078;34.818;2023-06-22T10:28:25;100395.75;;;33.66;44.87
23619;BME280;18207;32.078;34.818;2023-06-22T10:30:59;100392.91;;;33.66;44.41
23619;BME280;18207;32.078;34.818;2023-06-22T10:33:29;100390.88;;;33.67;44.23
23619;BME280;18207;32.078;34.818;2023-06-22T10:36:02;100391.69;;;33.67;44.21
23619;BME280;18207;32.078;34.818;2023-06-22T10:38:32;100396.16;;;33.68;44.20
23619;BME280;18207;32.078;34.818;2023-06-22T10:41:03;100386.78;;;33.68;44.14
23619;BME280;18207;32.078;34.818;2023-06-22T10:43:33;100382.69;;;33.69;44.12
23619;BME280;18207;32.078;34.818;2023-06-22T10:46:03;100384.28;;;33.70;44.59
23619;BME280;18207;32.078;34.818;2023-06-22T10:48:34;100382.25;;;33.70;44.26
23619;BME280;18207;32.078;34.818;2023-06-22T10:51:06;100389.59;;;33.71;44.05
23619;BME280;18207;32.078;34.818;2023-06-22T10:53:36;100385.13;;;33.70;44.13
23619;BME280;18207;32.078;34.818;2023-06-22T10:56:06;100385.13;;;33.70;44.76
23619;BME280;18207;32.078;34.818;2023-06-22T10:58:37;100387.97;;;33.70;44.09
23619;BME280;18207;32.078;34.818;2023-06-22T11:01:07;100386.34;;;33.69;44.29
23619;BME280;18207;32.078;34.818;2023-06-22T11:03:57;100385.53;;;33.69;44.63
23619;BME280;18207;32.078;34.818;2023-06-22T11:06:29;100379.03;;;33.68;44.69
23619;BME280;18207;32.078;34.818;2023-06-22T11:08:59;100376.97;;;33.69;44.40
23619;BME280;18207;32.078;34.818;2023-06-22T11:11:52;100371.72;;;33.67;44.79
23619;BME280;18207;32.078;34.818;2023-06-22T11:14:23;100368.88;;;33.67;44.43
23619;BME280;18207;32.078;34.818;2023-06-22T11:16:53;100374.19;;;33.65;44.09
23619;BME280;18207;32.078;34.818;2023-06-22T11:19:24;100370.56;;;33.65;44.24
23619;BME280;18207;32.078;34.818;2023-06-22T11:21:56;100373.03;;;33.63;44.65
23619;BME280;18207;32.078;34.818;2023-06-22T11:24:26;100372.22;;;33.62;44.17
23619;BME280;18207;32.078;34.818;2023-06-22T11:26:56;100369.78;;;33.61;44.12
23619;BME280;18207;32.078;34.818;2023-06-22T11:29:27;100371.84;;;33.60;43.94
23619;BME280;18207;32.078;34.818;2023-06-22T11:32:06;100371.03;;;33.60;43.96
23619;BME280;18207;32.078;34.818;2023-06-22T11:34:39;100375.94;;;33.59;44.23
23619;BME280;18207;32.078;34.818;2023-06-22T11:37:11;100370.66;;;33.58;43.92
23619;BME280;18207;32.078;34.818;2023-06-22T11:39:43;100381.22;;;33.57;43.98
23619;BME280;18207;32.078;34.818;2023-06-22T11:42:20;100374.72;;;33.57;44.09
23619;BME280;18207;32.078;34.818;2023-06-22T11:44:51;100380.44;;;33.57;44.11
23619;BME280;18207;32.078;34.818;2023-06-22T11:47:23;100375.53;;;33.57;43.92
23619;BME280;18207;32.078;34.818;2023-06-22T11:49:53;100380.44;;;33.57;44.59
23619;BME280;18207;32.078;34.818;2023-06-22T11:52:25;100384.53;;;33.56;43.90
23619;BME280;18207;32.078;34.818;2023-06-22T11:54:55;100369.06;;;33.53;44.55
23619;BME280;18207;32.078;34.818;2023-06-22T11:57:27;100373.59;;;33.51;44.43
23619;BME280;18207;32.078;34.818;2023-06-22T11:59:57;100380.53;;;33.50;43.95
23619;BME280;18207;32.078;34.818;2023-06-22T12:02:28;100376.91;;;33.49;44.21
23619;BME280;18207;32.078;34.818;2023-06-22T12:04:59;100371.63;;;33.48;44.05
23619;BME280;18207;32.078;34.818;2023-06-22T12:07:34;100364.31;;;33.47;43.92
23619;BME280;18207;32.078;34.818;2023-06-22T12:10:06;100368.41;;;33.46;44.05
23619;BME280;18207;32.078;34.818;2023-06-22T12:12:36;100371.66;;;33.44;43.90
23619;BME280;18207;32.078;34.818;2023-06-22T12:15:08;100354.56;;;33.44;44.40
23619;BME280;18207;32.078;34.818;2023-06-22T12:17:38;100357.88;;;33.43;44.15
23619;BME280;18207;32.078;34.818;2023-06-22T12:20:10;100357.41;;;33.44;44.46
23619;BME280;18207;32.078;34.818;2023-06-22T12:22:43;100363.13;;;33.44;43.90
23619;BME280;18207;32.078;34.818;2023-06-22T12:25:13;100358.66;;;33.43;44.63
23619;BME280;18207;32.078;34.818;2023-06-22T12:27:44;100350.53;;;33.42;44.16
23619;BME280;18207;32.078;34.818;2023-06-22T12:30:15;100357.06;;;33.42;44.22
23619;BME280;18207;32.078;34.818;2023-06-22T12:32:46;100352.59;;;33.41;44.27
23619;BME280;18207;32.078;34.818;2023-06-22T12:35:17;100357.47;;;33.41;44.58
23619;BME280;18207;32.078;34.818;2023-06-22T12:37:49;100358.72;;;33.40;44.55
23619;BME280;18207;32.078;34.818;2023-06-22T12:40:19;100353.84;;;33.40;44.28
23619;BME280;18207;32.078;34.818;2023-06-22T12:42:49;100362.81;;;33.39;44.51
23619;BME280;18207;32.078;34.818;2023-06-22T12:45:20;100361.22;;;33.38;44.78
23619;BME280;18207;32.078;34.818;2023-06-22T12:47:50;100359.59;;;33.37;44.60
23619;BME280;18207;32.078;34.818;2023-06-22T12:50:20;100351.47;;;33.35;44.51
23619;BME280;18207;32.078;34.818;2023-06-22T12:52:52;100356.38;;;33.35;44.53
23619;BME280;18207;32.078;34.818;2023-06-22T12:55:23;100347.44;;;33.33;44.53
23619;BME280;18207;32.078;34.818;2023-06-22T12:57:53;100352.34;;;33.32;44.20
23619;BME280;18207;32.078;34.818;2023-06-22T13:00:24;100351.53;;;33.32;43.99
23619;BME280;18207;32.078;34.818;2023-06-22T13:02:55;100354.00;;;33.30;44.58